createdAt,value
2023-03-13T00:01:43.630Z,10.71
2023-03-13T00:04:11.459Z,11.07
2023-03-13T00:06:40.755Z,11.19
2023-03-13T00:09:10.285Z,11.17
2023-03-13T00:11:38.088Z,11.47
2023-03-13T00:14:07.245Z,10.74
2023-03-13T00:16:37.332Z,10.72
2023-03-13T00:19:07.746Z,10.57
2023-03-13T00:21:37.484Z,10.74
2023-03-13T00:24:05.753Z,10.48
2023-03-13T00:26:33.484Z,10.41
2023-03-13T00:29:01.320Z,10.87
2023-03-13T00:31:31.250Z,11.10
2023-03-13T00:34:00.925Z,10.91
2023-03-13T00:36:32.143Z,11.06
2023-03-13T00:39:00.647Z,10.55
2023-03-13T00:41:31.007Z,10.52
2023-03-13T00:43:59.610Z,10.76
2023-03-13T00:46:29.521Z,11.20
2023-03-13T00:48:57.600Z,10.62
2023-03-13T00:51:26.912Z,10.82
2023-03-13T00:53:56.654Z,10.92
2023-03-13T00:56:24.601Z,11.06
2023-03-13T00:58:52.676Z,10.52
2023-03-13T01:01:22.744Z,10.71
2023-03-13T01:03:52.568Z,11.07
2023-03-13T01:06:22.833Z,11.75
2023-03-13T01:08:50.697Z,10.37
2023-03-13T01:11:22.456Z,10.52
2023-03-13T01:13:51.283Z,10.14
2023-03-13T01:16:21.837Z,10.71
2023-03-13T01:18:51.489Z,10.53
2023-03-13T01:21:21.165Z,10.56
2023-03-13T01:23:49.974Z,11.10
2023-03-13T01:26:19.670Z,10.43
2023-03-13T01:28:47.453Z,11.25
2023-03-13T01:31:20.154Z,10.36
2023-03-13T01:33:49.962Z,10.28
2023-03-13T01:36:18.964Z,10.61
2023-03-13T01:38:49.733Z,10.30
2023-03-13T01:41:20.492Z,10.96
2023-03-13T01:43:48.354Z,10.42
2023-03-13T01:46:18.517Z,10.85
2023-03-13T01:49:08.155Z,10.60
2023-03-13T01:51:46.669Z,11.12
2023-03-13T01:54:17.835Z,10.59
2023-03-13T01:56:50.921Z,10.15
2023-03-13T01:59:23.271Z,10.13
2023-03-13T02:01:54.251Z,10.51
2023-03-13T02:04:24.008Z,10.66
2023-03-13T02:06:57.615Z,10.62
2023-03-13T02:09:30.514Z,10.52
2023-03-13T02:12:05.480Z,10.35
2023-03-13T02:14:36.744Z,10.67
2023-03-13T02:17:06.605Z,10.44
2023-03-13T02:19:41.018Z,10.32
2023-03-13T02:22:17.908Z,9.78
2023-03-13T02:24:55.882Z,9.93
2023-03-13T02:27:25.716Z,10.03
2023-03-13T02:29:54.188Z,10.26
2023-03-13T02:32:23.329Z,9.93
2023-03-13T02:34:55.395Z,9.77
2023-03-13T02:37:26.162Z,9.67
2023-03-13T02:39:55.513Z,9.72
2023-03-13T02:42:26.220Z,9.95
2023-03-13T02:44:53.986Z,9.85
2023-03-13T02:47:23.453Z,9.96
2023-03-13T02:49:51.979Z,9.93
2023-03-13T02:52:24.927Z,10.05
2023-03-13T02:54:56.705Z,10.02
2023-03-13T02:57:25.852Z,10.13
2023-03-13T02:59:53.625Z,10.12
2023-03-13T03:02:21.447Z,9.83
2023-03-13T03:04:49.318Z,10.58
2023-03-13T03:07:17.188Z,9.67
2023-03-13T03:09:45.429Z,10.35
2023-03-13T03:12:18.526Z,10.87
2023-03-13T03:14:48.186Z,10.91
2023-03-13T03:17:16.878Z,10.72
2023-03-13T03:19:44.612Z,10.03
2023-03-13T03:22:12.406Z,11.40
2023-03-13T03:24:40.172Z,10.58
2023-03-13T03:27:08.013Z,9.84
2023-03-13T03:29:42.351Z,9.88
2023-03-13T03:32:11.663Z,11.31
2023-03-13T03:34:39.469Z,10.41
2023-03-13T03:37:08.437Z,11.05
2023-03-13T03:39:36.685Z,10.21
2023-03-13T03:42:06.612Z,9.53
2023-03-13T03:44:34.458Z,10.60
2023-03-13T03:47:02.224Z,10.63
2023-03-13T03:49:36.036Z,10.03
2023-03-13T03:52:03.947Z,10.17
2023-03-13T03:54:36.594Z,9.99
2023-03-13T03:57:04.639Z,10.42
2023-03-13T03:59:32.561Z,10.61
2023-03-13T04:02:05.537Z,10.10
2023-03-13T04:04:35.800Z,10.00
2023-03-13T04:07:08.402Z,10.36
2023-03-13T04:09:36.458Z,10.30
2023-03-13T04:12:07.479Z,10.14
2023-03-13T04:14:39.672Z,10.40
2023-03-13T04:17:09.913Z,10.65
2023-03-13T04:19:39.374Z,10.69
2023-03-13T04:22:07.957Z,10.51
2023-03-13T04:24:36.065Z,10.61
2023-03-13T04:27:06.471Z,10.84
2023-03-13T04:29:34.913Z,10.45
2023-03-13T04:32:21.958Z,11.17
2023-03-13T04:35:03.249Z,11.27
2023-03-13T04:37:37.231Z,10.70
2023-03-13T04:40:23.445Z,10.48
2023-03-13T04:42:57.018Z,10.52
2023-03-13T04:45:43.486Z,10.77
2023-03-13T04:49:08.816Z,11.65
2023-03-13T04:52:00.705Z,11.08
2023-03-13T04:54:52.739Z,10.81
2023-03-13T04:57:40.460Z,10.62
2023-03-13T05:00:28.507Z,10.79
2023-03-13T05:03:14.225Z,11.11
2023-03-13T05:06:02.307Z,10.97
2023-03-13T05:08:57.752Z,10.72
2023-03-13T05:11:43.746Z,10.61
2023-03-13T05:14:37.811Z,10.92
2023-03-13T05:17:23.934Z,11.01
2023-03-13T05:19:58.686Z,10.85
2023-03-13T05:22:45.139Z,11.20
2023-03-13T05:25:23.222Z,11.23
2023-03-13T05:28:26.554Z,11.00
2023-03-13T05:31:29.661Z,11.16
2023-03-13T05:33:57.396Z,11.32
2023-03-13T05:36:43.695Z,11.21
2023-03-13T05:39:33.653Z,11.15
2023-03-13T05:42:23.084Z,11.22
2023-03-13T05:45:10.612Z,11.12
2023-03-13T05:47:58.870Z,11.46
2023-03-13T05:50:38.499Z,12.70
2023-03-13T05:53:26.585Z,12.56
2023-03-13T05:56:14.630Z,12.37
2023-03-13T05:58:52.334Z,11.79
2023-03-13T06:01:46.135Z,11.73
2023-03-13T06:04:26.674Z,11.58
2023-03-13T06:06:54.958Z,11.50
2023-03-13T06:09:23.061Z,11.49
2023-03-13T06:11:51.708Z,11.65
2023-03-13T06:14:21.939Z,11.68
2023-03-13T06:17:19.087Z,12.27
2023-03-13T06:19:47.789Z,12.99
2023-03-13T06:22:17.382Z,12.02
2023-03-13T06:24:46.795Z,11.98
2023-03-13T06:27:14.627Z,12.73
2023-03-13T06:29:43.868Z,12.93
2023-03-13T06:32:11.717Z,11.92
2023-03-13T06:34:39.624Z,11.92
2023-03-13T06:37:07.377Z,12.64
2023-03-13T06:39:35.139Z,13.01
2023-03-13T06:42:02.984Z,12.74
2023-03-13T06:44:30.788Z,12.68
2023-03-13T06:46:59.916Z,12.89
2023-03-13T06:49:27.781Z,12.76
2023-03-13T06:51:58.362Z,13.00
2023-03-13T06:54:26.142Z,13.31
2023-03-13T06:56:53.908Z,13.53
2023-03-13T06:59:21.664Z,13.72
2023-03-13T07:01:49.406Z,13.61
2023-03-13T07:04:18.779Z,13.34
2023-03-13T07:06:46.664Z,12.67
2023-03-13T07:09:14.508Z,12.72
2023-03-13T07:11:42.227Z,12.94
2023-03-13T07:14:16.891Z,13.30
2023-03-13T07:16:46.168Z,12.70
2023-03-13T07:19:14.319Z,12.54
2023-03-13T07:21:44.053Z,12.74
2023-03-13T07:24:12.110Z,12.72
2023-03-13T07:26:42.742Z,12.68
2023-03-13T07:29:16.373Z,12.99
2023-03-13T07:31:44.115Z,13.35
2023-03-13T07:34:11.895Z,13.03
2023-03-13T07:36:41.519Z,13.22
2023-03-13T07:39:10.831Z,14.89
2023-03-13T07:41:39.980Z,15.48
2023-03-13T07:44:07.852Z,15.09
2023-03-13T07:46:35.871Z,14.40
2023-03-13T07:49:03.824Z,15.34
2023-03-13T07:51:42.869Z,13.99
2023-03-13T07:54:13.010Z,14.67
2023-03-13T07:56:40.832Z,14.08
2023-03-13T07:59:09.389Z,14.68
2023-03-13T08:01:37.502Z,14.72
2023-03-13T08:04:05.931Z,15.30
2023-03-13T08:06:35.559Z,15.71
2023-03-13T08:09:05.089Z,15.58
2023-03-13T08:11:34.329Z,14.20
2023-03-13T08:14:02.092Z,15.48
2023-03-13T08:16:32.236Z,15.67
2023-03-13T08:19:00.815Z,15.55
2023-03-13T08:21:30.196Z,14.54
2023-03-13T08:23:59.995Z,13.82
2023-03-13T08:26:30.117Z,14.19
2023-03-13T08:29:01.515Z,14.04
2023-03-13T08:31:31.273Z,14.05
2023-03-13T08:33:59.499Z,13.88
2023-03-13T08:36:29.383Z,14.21
2023-03-13T08:39:01.734Z,14.17
2023-03-13T08:41:32.203Z,14.14
2023-03-13T08:44:01.826Z,15.20
2023-03-13T08:46:31.141Z,14.13
2023-03-13T08:48:59.197Z,14.72
2023-03-13T08:51:29.272Z,15.07
2023-03-13T08:53:57.619Z,14.40
2023-03-13T08:56:27.927Z,14.01
2023-03-13T08:58:56.955Z,13.88
2023-03-13T09:01:27.683Z,14.27
2023-03-13T09:03:56.074Z,14.66
2023-03-13T09:06:24.288Z,15.15
2023-03-13T09:08:52.136Z,14.82
2023-03-13T09:11:21.483Z,14.77
2023-03-13T09:13:51.367Z,14.65
2023-03-13T09:16:21.455Z,14.59
2023-03-13T09:18:51.363Z,14.84
2023-03-13T09:21:20.874Z,14.38
2023-03-13T09:23:49.044Z,14.90
2023-03-13T09:26:17.949Z,14.64
2023-03-13T09:28:45.851Z,14.81
2023-03-13T09:31:15.871Z,15.00
2023-03-13T09:33:44.348Z,15.28
2023-03-13T09:36:13.903Z,15.39
2023-03-13T09:38:42.040Z,15.90
2023-03-13T09:41:33.796Z,16.22
2023-03-13T09:44:06.899Z,16.35
2023-03-13T09:46:40.818Z,16.23
2023-03-13T09:49:18.297Z,18.90
2023-03-13T09:51:52.047Z,18.25
2023-03-13T09:54:26.996Z,17.51
2023-03-13T09:56:58.381Z,17.49
2023-03-13T09:59:33.973Z,16.95
2023-03-13T10:02:05.225Z,16.89
2023-03-13T10:04:41.737Z,16.70
2023-03-13T10:07:13.738Z,16.96
2023-03-13T10:09:42.366Z,17.61
2023-03-13T10:12:18.121Z,17.86
2023-03-13T10:14:54.857Z,17.82
2023-03-13T10:17:32.273Z,17.57
2023-03-13T10:20:08.508Z,17.64
2023-03-13T10:22:39.053Z,18.04
2023-03-13T10:25:14.023Z,18.14
2023-03-13T10:27:45.922Z,18.02
2023-03-13T10:30:23.992Z,18.08
2023-03-13T10:32:51.921Z,18.46
2023-03-13T10:35:24.893Z,18.50
2023-03-13T10:38:04.780Z,19.11
2023-03-13T10:40:32.958Z,18.56
2023-03-13T10:43:07.438Z,19.06
2023-03-13T10:45:37.654Z,18.71
2023-03-13T10:48:13.532Z,18.75
2023-03-13T10:50:44.101Z,19.54
2023-03-13T10:53:25.463Z,18.81
2023-03-13T10:55:58.932Z,19.08
2023-03-13T10:58:34.391Z,18.97
2023-03-13T11:01:17.972Z,18.08
2023-03-13T11:03:46.785Z,18.24
2023-03-13T11:06:31.730Z,18.55
2023-03-13T11:09:13.951Z,19.79
2023-03-13T11:11:49.591Z,19.34
2023-03-13T11:14:20.218Z,18.85
2023-03-13T11:16:50.384Z,20.27
2023-03-13T11:19:34.294Z,20.48
2023-03-13T11:22:17.174Z,19.22
2023-03-13T11:24:55.738Z,19.71
2023-03-13T11:27:31.256Z,21.77
2023-03-13T11:30:15.411Z,19.87
2023-03-13T11:32:47.117Z,20.03
2023-03-13T11:35:28.843Z,19.79
2023-03-13T11:37:58.137Z,18.88
2023-03-13T11:40:33.049Z,20.35
2023-03-13T11:43:26.177Z,19.10
2023-03-13T11:46:09.475Z,19.15
2023-03-13T11:48:57.993Z,19.34
2023-03-13T11:51:29.208Z,20.57
2023-03-13T11:54:17.309Z,21.44
2023-03-13T11:56:51.928Z,20.59
2023-03-13T11:59:33.558Z,20.41
2023-03-13T12:02:08.392Z,20.14
2023-03-13T12:04:40.878Z,20.37
2023-03-13T12:07:26.472Z,20.93
2023-03-13T12:09:57.730Z,21.40
2023-03-13T12:12:38.765Z,19.89
2023-03-13T12:15:20.602Z,21.71
2023-03-13T12:17:54.955Z,20.17
2023-03-13T12:20:26.775Z,20.25
2023-03-13T12:23:01.976Z,21.62
2023-03-13T12:25:34.335Z,21.84
2023-03-13T12:28:12.710Z,24.83
2023-03-13T12:30:44.926Z,25.56
2023-03-13T12:33:23.636Z,23.34
2023-03-13T12:35:58.319Z,21.82
2023-03-13T12:38:32.300Z,21.83
2023-03-13T12:41:11.822Z,22.27
2023-03-13T12:43:57.202Z,24.21
2023-03-13T12:46:43.642Z,22.71
2023-03-13T12:49:28.570Z,20.64
2023-03-13T12:52:13.913Z,22.74
2023-03-13T12:55:05.332Z,23.59
2023-03-13T12:58:06.612Z,25.67
2023-03-13T13:00:40.168Z,27.22
2023-03-13T13:03:19.583Z,26.53
2023-03-13T13:06:03.076Z,25.15
2023-03-13T13:08:35.976Z,21.36
2023-03-13T13:11:41.455Z,20.86
2023-03-13T13:14:59.609Z,22.61
2023-03-13T13:17:41.313Z,20.35
2023-03-13T13:20:37.639Z,21.69
2023-03-13T13:23:33.860Z,20.24
2023-03-13T13:26:47.345Z,20.50
2023-03-13T13:29:59.981Z,20.88
2023-03-13T13:32:41.659Z,20.13
2023-03-13T13:35:36.785Z,21.69
2023-03-13T13:38:40.246Z,21.47
2023-03-13T13:41:28.025Z,20.61
2023-03-13T13:44:25.552Z,20.64
2023-03-13T13:46:55.735Z,21.69
2023-03-13T13:49:31.337Z,20.96
2023-03-13T13:52:36.464Z,20.64
2023-03-13T13:55:20.553Z,20.07
2023-03-13T13:57:51.205Z,19.41
2023-03-13T14:00:22.746Z,20.54
2023-03-13T14:02:52.944Z,21.26
2023-03-13T14:05:24.370Z,19.75
2023-03-13T14:08:04.378Z,19.37
2023-03-13T14:10:38.762Z,19.32
2023-03-13T14:13:13.765Z,19.72
2023-03-13T14:15:46.872Z,20.29
2023-03-13T14:18:21.752Z,19.44
2023-03-13T14:20:58.933Z,19.05
2023-03-13T14:23:33.639Z,19.01
2023-03-13T14:26:11.584Z,18.52
2023-03-13T14:28:41.529Z,18.58
2023-03-13T14:31:09.751Z,18.72
2023-03-13T14:33:37.615Z,19.05
2023-03-13T14:36:07.458Z,18.75
2023-03-13T14:38:35.377Z,18.92
2023-03-13T14:41:03.415Z,18.57
2023-03-13T14:43:36.005Z,18.03
2023-03-13T14:46:15.794Z,19.42
2023-03-13T14:48:44.013Z,19.99
2023-03-13T14:51:22.462Z,19.34
2023-03-13T14:53:58.222Z,18.78
2023-03-13T14:56:34.762Z,18.15
2023-03-13T14:59:16.577Z,18.45
2023-03-13T15:01:44.659Z,18.37
2023-03-13T15:04:12.566Z,18.20
2023-03-13T15:06:41.778Z,18.32
2023-03-13T15:09:18.918Z,17.93
2023-03-13T15:11:58.993Z,17.86
2023-03-13T15:14:41.578Z,18.10
2023-03-13T15:17:19.149Z,17.93
2023-03-13T15:19:51.803Z,17.70
2023-03-13T15:22:26.984Z,17.74
2023-03-13T15:25:05.712Z,17.61
2023-03-13T15:27:34.580Z,17.92
2023-03-13T15:30:02.324Z,17.79
2023-03-13T15:32:32.048Z,17.62
2023-03-13T15:35:01.723Z,17.44
2023-03-13T15:37:31.843Z,17.58
2023-03-13T15:39:59.844Z,17.94
2023-03-13T15:42:27.619Z,17.79
2023-03-13T15:44:55.398Z,17.69
2023-03-13T15:47:23.343Z,17.86
2023-03-13T15:49:51.186Z,17.65
2023-03-13T15:52:22.464Z,17.30
2023-03-13T15:54:52.859Z,16.75
2023-03-13T15:57:23.938Z,17.04
2023-03-13T15:59:52.313Z,17.28
2023-03-13T16:02:21.727Z,17.44
2023-03-13T16:04:49.667Z,17.80
2023-03-13T16:07:19.782Z,17.84
2023-03-13T16:09:48.359Z,17.76
2023-03-13T16:12:17.677Z,18.07
2023-03-13T16:14:45.547Z,18.02
2023-03-13T16:17:16.240Z,19.43
2023-03-13T16:19:44.230Z,18.66
2023-03-13T16:22:12.103Z,18.38
2023-03-13T16:24:39.882Z,18.03
2023-03-13T16:27:13.929Z,18.17
2023-03-13T16:29:43.145Z,18.28
2023-03-13T16:32:13.902Z,18.40
2023-03-13T16:34:42.926Z,18.03
2023-03-13T16:37:14.666Z,17.84
2023-03-13T16:39:42.551Z,17.70
2023-03-13T16:42:10.762Z,17.55
2023-03-13T16:44:39.350Z,17.66
2023-03-13T16:47:28.513Z,17.15
2023-03-13T16:49:56.504Z,17.17
2023-03-13T16:52:24.252Z,16.51
2023-03-13T16:54:52.033Z,16.61
2023-03-13T16:57:24.435Z,16.03
2023-03-13T16:59:52.236Z,16.33
2023-03-13T17:02:21.846Z,16.15
2023-03-13T17:04:49.635Z,16.59
2023-03-13T17:07:20.661Z,16.20
2023-03-13T17:09:48.718Z,16.26
2023-03-13T17:12:16.530Z,15.90
2023-03-13T17:14:44.371Z,16.25
2023-03-13T17:17:14.402Z,16.26
2023-03-13T17:19:43.514Z,16.20
2023-03-13T17:22:13.606Z,15.81
2023-03-13T17:24:41.696Z,15.96
2023-03-13T17:27:13.244Z,16.25
2023-03-13T17:29:41.538Z,16.12
2023-03-13T17:32:11.071Z,15.80
2023-03-13T17:34:38.883Z,15.86
2023-03-13T17:37:14.957Z,15.84
2023-03-13T17:39:43.295Z,15.91
2023-03-13T17:42:11.438Z,15.53
2023-03-13T17:44:41.093Z,16.11
2023-03-13T17:47:14.062Z,15.66
2023-03-13T17:49:41.902Z,15.61
2023-03-13T17:52:14.852Z,15.86
2023-03-13T17:54:43.196Z,15.88
2023-03-13T17:57:16.179Z,15.80
2023-03-13T17:59:44.518Z,15.40
2023-03-13T18:02:13.730Z,15.65
2023-03-13T18:04:42.286Z,15.51
2023-03-13T18:07:24.626Z,15.58
2023-03-13T18:09:52.735Z,15.54
2023-03-13T18:12:20.973Z,15.61
2023-03-13T18:14:48.713Z,15.63
2023-03-13T18:17:18.764Z,15.51
2023-03-13T18:19:46.934Z,15.51
2023-03-13T18:22:16.570Z,15.20
2023-03-13T18:24:46.488Z,15.45
2023-03-13T18:27:16.394Z,15.33
2023-03-13T18:29:45.085Z,15.47
2023-03-13T18:32:14.567Z,15.15
2023-03-13T18:34:42.885Z,15.23
2023-03-13T18:37:20.904Z,15.38
2023-03-13T18:39:51.269Z,15.32
2023-03-13T18:42:19.783Z,15.10
2023-03-13T18:44:47.584Z,15.46
2023-03-13T18:47:17.497Z,15.31
2023-03-13T18:49:45.348Z,15.11
2023-03-13T18:52:13.289Z,15.25
2023-03-13T18:54:41.443Z,15.05
2023-03-13T18:57:14.460Z,15.14
2023-03-13T18:59:42.771Z,15.26
2023-03-13T19:02:14.701Z,15.06
2023-03-13T19:04:42.923Z,14.86
2023-03-13T19:07:16.604Z,15.22
2023-03-13T19:09:46.770Z,15.01
2023-03-13T19:12:16.575Z,14.69
2023-03-13T19:14:44.828Z,15.23
2023-03-13T19:17:21.279Z,15.19
2023-03-13T19:19:49.036Z,15.00
2023-03-13T19:22:16.814Z,15.35
2023-03-13T19:24:44.739Z,15.15
2023-03-13T19:27:16.898Z,14.92
2023-03-13T19:29:47.006Z,15.27
2023-03-13T19:32:16.292Z,15.14
2023-03-13T19:34:44.254Z,14.94
2023-03-13T19:37:12.389Z,14.79
2023-03-13T19:39:40.143Z,14.87
2023-03-13T19:42:08.183Z,15.10
2023-03-13T19:44:36.548Z,14.62
2023-03-13T19:47:06.503Z,14.29
2023-03-13T19:49:34.625Z,14.95
2023-03-13T19:52:02.421Z,14.09
2023-03-13T19:54:30.153Z,14.86
2023-03-13T19:56:58.584Z,14.16
2023-03-13T19:59:28.179Z,14.95
2023-03-13T20:01:56.437Z,14.99
2023-03-13T20:04:25.732Z,14.72
2023-03-13T20:06:53.453Z,14.89
2023-03-13T20:09:21.423Z,14.77
2023-03-13T20:11:49.495Z,14.90
2023-03-13T20:14:17.467Z,15.03
2023-03-13T20:16:47.339Z,14.69
2023-03-13T20:19:15.223Z,14.81
2023-03-13T20:21:44.323Z,14.67
2023-03-13T20:24:12.086Z,14.86
2023-03-13T20:26:39.902Z,14.73
2023-03-13T20:29:07.626Z,14.66
2023-03-13T20:31:35.450Z,14.21
2023-03-13T20:34:03.317Z,14.31
2023-03-13T20:36:31.055Z,14.40
2023-03-13T20:39:00.149Z,14.33
2023-03-13T20:41:31.048Z,14.24
2023-03-13T20:43:59.086Z,14.29
2023-03-13T20:46:27.006Z,14.33
2023-03-13T20:48:55.846Z,13.96
2023-03-13T20:51:25.190Z,13.91
2023-03-13T20:53:52.965Z,14.18
2023-03-13T20:56:22.060Z,13.87
2023-03-13T20:58:49.800Z,13.89
2023-03-13T21:01:19.529Z,14.13
2023-03-13T21:03:47.472Z,14.17
2023-03-13T21:06:17.470Z,13.98
2023-03-13T21:08:46.597Z,14.01
2023-03-13T21:11:16.118Z,14.18
2023-03-13T21:13:45.750Z,14.12
2023-03-13T21:16:14.032Z,14.35
2023-03-13T21:18:41.886Z,14.32
2023-03-13T21:21:12.503Z,14.51
2023-03-13T21:23:40.356Z,13.97
2023-03-13T21:26:08.303Z,14.08
2023-03-13T21:28:36.089Z,13.88
2023-03-13T21:31:11.620Z,14.26
2023-03-13T21:33:41.000Z,14.35
2023-03-13T21:36:10.051Z,14.46
2023-03-13T21:38:37.882Z,14.10
2023-03-13T21:41:09.290Z,13.98
2023-03-13T21:43:37.367Z,14.25
2023-03-13T21:46:05.537Z,13.88
2023-03-13T21:48:34.627Z,14.03
2023-03-13T21:51:02.415Z,13.83
2023-03-13T21:53:30.334Z,13.94
2023-03-13T21:55:58.118Z,13.84
2023-03-13T21:58:25.980Z,13.91
2023-03-13T22:00:54.797Z,13.89
2023-03-13T22:03:22.907Z,13.85
2023-03-13T22:05:52.046Z,13.10
2023-03-13T22:08:19.807Z,13.86
2023-03-13T22:10:51.331Z,13.92
2023-03-13T22:13:19.686Z,14.10
2023-03-13T22:15:50.415Z,13.67
2023-03-13T22:18:18.868Z,13.63
2023-03-13T22:20:46.576Z,13.67
2023-03-13T22:23:15.715Z,13.86
2023-03-13T22:25:45.678Z,13.39
2023-03-13T22:28:13.455Z,13.67
2023-03-13T22:30:41.629Z,13.57
2023-03-13T22:33:09.440Z,13.40
2023-03-13T22:35:38.829Z,13.04
2023-03-13T22:38:07.093Z,13.21
2023-03-13T22:40:36.172Z,13.37
2023-03-13T22:43:04.222Z,13.04
2023-03-13T22:45:33.986Z,13.37
2023-03-13T22:48:06.038Z,13.50
2023-03-13T22:50:33.991Z,13.41
2023-03-13T22:53:01.954Z,13.39
2023-03-13T22:55:29.855Z,13.14
2023-03-13T22:57:59.019Z,13.11
2023-03-13T23:00:26.953Z,13.38
2023-03-13T23:02:55.729Z,13.33
2023-03-13T23:05:23.607Z,13.42
2023-03-13T23:07:51.401Z,13.56
2023-03-13T23:10:19.835Z,13.48
2023-03-13T23:12:47.614Z,13.23
2023-03-13T23:15:16.846Z,13.32
2023-03-13T23:17:44.593Z,13.23
2023-03-13T23:20:13.836Z,13.05
2023-03-13T23:22:42.392Z,13.36
2023-03-13T23:25:11.336Z,13.06
2023-03-13T23:27:39.150Z,13.07
2023-03-13T23:30:19.295Z,12.92
2023-03-13T23:32:49.342Z,12.44
2023-03-13T23:35:17.863Z,12.81
2023-03-13T23:37:49.267Z,13.05
2023-03-13T23:40:17.195Z,12.85
2023-03-13T23:42:46.177Z,12.81
2023-03-13T23:45:14.146Z,12.50
2023-03-13T23:47:43.934Z,12.23
2023-03-13T23:50:14.191Z,12.07
2023-03-13T23:52:42.457Z,12.07
2023-03-13T23:55:11.161Z,12.28
2023-03-13T23:57:39.087Z,12.66
